Time;durP1;ratioP1;P1;durP2;ratioP2;P2;SDS_P1;SDS_P2;PMS_P1;PMS_P2;Temp;Humidity;BMP_temperature;BMP_pressure;BME280_temperature;BME280_humidity;BME280_pressure;Samples;Min_cycle;Max_cycle;Signal;HPM_P1;HPM_P2
2022/11/20 05:02:21;;;;;;;7.73;5.10;;;6.40;99.90;;;;;;5070252;23;21087;-72
2022/11/20 05:04:48;;;;;;;7.27;5.40;;;6.40;99.90;;;;;;4947290;28;20464;-72
2022/11/20 05:07:15;;;;;;;6.07;5.20;;;6.40;99.90;;;;;;4947307;28;20464;-72
2022/11/20 05:09:42;;;;;;;6.70;4.70;;;6.40;99.90;;;;;;4947513;28;20449;-72
2022/11/20 05:12:09;;;;;;;5.60;4.80;;;6.40;99.90;;;;;;4946906;28;20490;-72
2022/11/20 05:14:35;;;;;;;7.07;4.90;;;6.40;99.90;;;;;;4947611;28;20468;-72
2022/11/20 05:17:02;;;;;;;5.30;4.00;;;6.40;99.90;;;;;;4947664;28;20457;-71
2022/11/20 05:19:30;;;;;;;5.93;5.30;;;6.40;99.90;;;;;;4947890;28;20678;-72
2022/11/20 05:21:57;;;;;;;6.27;4.50;;;6.30;99.90;;;;;;4946628;28;20955;-72
2022/11/20 05:24:24;;;;;;;8.90;4.77;;;6.30;99.90;;;;;;4947065;28;20969;-72
2022/11/20 05:26:50;;;;;;;11.73;4.97;;;6.30;99.90;;;;;;4947068;28;20911;-72
2022/11/20 05:29:17;;;;;;;8.50;4.90;;;6.40;99.90;;;;;;4947443;28;20468;-72
2022/11/20 05:31:44;;;;;;;4.87;4.23;;;6.30;99.90;;;;;;4945713;28;20508;-72
2022/11/20 05:34:11;;;;;;;6.50;4.43;;;6.30;99.90;;;;;;4947318;28;20457;-72
2022/11/20 05:36:39;;;;;;;5.83;4.60;;;6.30;99.90;;;;;;4947193;28;20457;-72
2022/11/20 05:39:05;;;;;;;5.30;4.33;;;6.30;99.90;;;;;;4947394;28;20464;-72
2022/11/20 05:41:34;;;;;;;6.30;4.53;;;6.30;99.90;;;;;;4946855;28;21020;-72
2022/11/20 05:44:01;;;;;;;5.10;4.60;;;6.30;99.90;;;;;;4954967;28;20452;-72
2022/11/20 05:46:28;;;;;;;6.07;5.47;;;6.30;99.90;;;;;;4966321;28;20456;-72
2022/11/20 05:48:55;;;;;;;6.67;5.00;;;6.30;99.90;;;;;;4966362;28;20460;-72
2022/11/20 05:51:21;;;;;;;4.47;3.97;;;6.30;99.90;;;;;;4968187;28;20480;-72
2022/11/20 05:53:49;;;;;;;4.90;3.90;;;6.30;99.90;;;;;;4969175;28;20492;-72
2022/11/20 05:56:19;;;;;;;8.50;4.30;;;6.30;99.90;;;;;;4969350;28;20480;-72
2022/11/20 05:58:46;;;;;;;6.30;4.67;;;6.30;99.90;;;;;;4969097;28;20468;-72
2022/11/20 06:01:15;;;;;;;4.43;4.00;;;6.30;99.90;;;;;;4969361;28;20488;-72
2022/11/20 06:03:45;;;;;;;8.63;4.50;;;6.30;99.90;;;;;;4968660;28;20459;-72
2022/11/20 06:06:12;;;;;;;5.50;3.93;;;6.40;99.90;;;;;;4969355;28;20952;-72
2022/11/20 06:08:39;;;;;;;5.63;4.60;;;6.30;99.90;;;;;;4969346;28;20463;-72
2022/11/20 06:11:09;;;;;;;6.87;4.50;;;6.30;99.90;;;;;;4969205;28;20477;-72
2022/11/20 06:13:36;;;;;;;10.33;5.00;;;6.40;99.90;;;;;;4969110;28;20531;-76
2022/11/20 06:16:04;;;;;;;4.83;4.17;;;6.40;99.90;;;;;;4971684;28;20492;-75
2022/11/20 06:18:31;;;;;;;5.23;4.20;;;6.40;99.90;;;;;;4970807;28;20467;-75
2022/11/20 06:21:02;;;;;;;6.40;4.10;;;6.40;99.90;;;;;;4971027;28;20476;-75
2022/11/20 06:23:30;;;;;;;4.90;4.40;;;6.40;99.90;;;;;;4969682;28;20456;-74
2022/11/20 06:25:56;;;;;;;5.27;4.60;;;6.40;99.90;;;;;;4969513;28;20780;-75
2022/11/20 06:28:25;;;;;;;6.10;4.30;;;6.40;99.90;;;;;;4970754;28;20972;-75
2022/11/20 06:30:51;;;;;;;5.80;4.70;;;6.40;99.90;;;;;;4970761;28;20476;-75
2022/11/20 06:33:18;;;;;;;5.20;4.70;;;6.40;99.90;;;;;;4968973;28;20488;-75
2022/11/20 06:35:45;;;;;;;6.40;4.50;;;6.40;99.90;;;;;;4969642;28;20456;-74
2022/11/20 06:38:12;;;;;;;4.80;4.20;;;6.40;99.90;;;;;;4969495;28;20471;-75
2022/11/20 06:40:41;;;;;;;5.43;4.37;;;6.40;99.90;;;;;;4969568;28;20535;-75
2022/11/20 06:43:08;;;;;;;6.13;4.60;;;6.50;99.90;;;;;;4969221;28;20461;-75
2022/11/20 06:45:36;;;;;;;5.63;4.73;;;6.50;99.90;;;;;;4970055;28;20471;-75
2022/11/20 06:48:03;;;;;;;7.40;4.67;;;6.50;99.90;;;;;;4969974;28;20460;-75
2022/11/20 06:50:29;;;;;;;5.80;4.70;;;6.50;99.90;;;;;;4970331;28;20519;-74
2022/11/20 06:52:56;;;;;;;6.70;4.33;;;6.50;99.90;;;;;;4969203;28;20515;-75
2022/11/20 06:55:23;;;;;;;5.27;4.33;;;6.50;99.90;;;;;;4969514;28;20465;-76
2022/11/20 06:57:51;;;;;;;5.13;4.60;;;6.60;99.90;;;;;;4969208;28;20460;-75
2022/11/20 07:00:18;;;;;;;5.33;4.83;;;6.60;99.90;;;;;;4968116;28;20813;-76
2022/11/20 07:02:46;;;;;;;5.30;4.60;;;6.70;99.90;;;;;;4967450;28;20448;-75
2022/11/20 07:05:13;;;;;;;4.83;4.30;;;6.70;99.90;;;;;;4968303;28;20467;-75
2022/11/20 07:07:40;;;;;;;6.23;4.20;;;6.70;99.90;;;;;;4969023;28;20471;-75
2022/11/20 07:10:08;;;;;;;5.57;4.30;;;6.60;99.90;;;;;;4969176;28;20456;-75
2022/11/20 07:12:34;;;;;;;5.97;4.27;;;6.60;99.90;;;;;;4968332;28;20492;-75
2022/11/20 07:15:01;;;;;;;7.77;4.50;;;6.50;99.90;;;;;;4970035;28;20464;-75
2022/11/20 07:17:28;;;;;;;7.53;4.90;;;6.50;99.90;;;;;;4970569;28;20461;-75
2022/11/20 07:19:56;;;;;;;5.70;4.60;;;6.50;99.90;;;;;;4969639;28;20460;-75
2022/11/20 07:22:23;;;;;;;8.23;5.43;;;6.50;99.90;;;;;;4969121;28;20499;-75
2022/11/20 07:24:49;;;;;;;8.57;5.70;;;6.50;99.90;;;;;;4969136;28;20453;-75
2022/11/20 07:27:16;;;;;;;4.60;3.70;;;6.60;99.90;;;;;;4968349;28;20464;-75
2022/11/20 07:29:43;;;;;;;4.50;4.10;;;6.50;99.90;;;;;;4968189;28;20471;-75
2022/11/20 07:32:10;;;;;;;6.00;4.20;;;6.50;99.90;;;;;;4969218;28;20487;-75
2022/11/20 07:34:36;;;;;;;7.43;5.23;;;6.60;99.90;;;;;;4971001;28;20471;-74
2022/11/20 07:37:04;;;;;;;6.07;4.53;;;6.50;99.90;;;;;;4970306;28;20496;-73
2022/11/20 07:39:31;;;;;;;5.97;4.43;;;6.50;99.90;;;;;;4968006;28;20468;-75
2022/11/20 07:41:58;;;;;;;7.30;4.90;;;6.50;99.90;;;;;;4967649;28;20473;-73
2022/11/20 07:44:25;;;;;;;5.00;4.30;;;6.50;99.90;;;;;;4968285;28;20461;-74
2022/11/20 07:46:51;;;;;;;4.80;4.17;;;6.50;99.90;;;;;;4968395;28;20460;-73
2022/11/20 07:49:18;;;;;;;6.83;4.20;;;6.50;99.90;;;;;;4968617;28;21010;-73
2022/11/20 07:51:45;;;;;;;7.13;4.37;;;6.60;99.90;;;;;;4967290;28;20480;-74
2022/11/20 07:54:13;;;;;;;3.97;3.53;;;6.60;99.90;;;;;;4967688;28;20846;-73
2022/11/20 07:56:40;;;;;;;5.20;3.67;;;6.70;99.90;;;;;;4967600;28;20460;-75
2022/11/20 07:59:06;;;;;;;5.33;3.97;;;6.60;99.90;;;;;;4967745;28;20456;-74
2022/11/20 08:01:33;;;;;;;6.93;4.47;;;6.60;99.90;;;;;;4967781;28;20496;-74
2022/11/20 08:04:00;;;;;;;4.43;4.00;;;6.70;99.90;;;;;;4968149;28;21242;-73
2022/11/20 08:06:27;;;;;;;4.33;3.60;;;6.60;99.90;;;;;;4968458;28;20486;-75
2022/11/20 08:08:53;;;;;;;3.90;3.60;;;6.60;99.90;;;;;;4967968;28;20949;-75
2022/11/20 08:14:15;;;;;;;4.23;3.80;;;6.50;99.90;;;;;;4967507;28;21112;-74
2022/11/20 08:16:44;;;;;;;5.63;4.70;;;6.50;99.90;;;;;;4968429;28;20464;-75
2022/11/20 08:19:11;;;;;;;5.80;4.70;;;6.50;99.90;;;;;;4968668;28;20460;-74
2022/11/20 08:21:38;;;;;;;6.30;4.40;;;6.50;99.90;;;;;;4967748;28;20472;-75
2022/11/20 08:24:06;;;;;;;8.43;4.70;;;6.60;99.90;;;;;;4967210;28;21381;-76
2022/11/20 08:26:35;;;;;;;9.20;4.93;;;6.60;99.90;;;;;;4967596;28;20464;-73
2022/11/20 08:29:02;;;;;;;8.23;5.27;;;6.60;99.90;;;;;;4967422;28;20459;-75
2022/11/20 08:31:29;;;;;;;8.47;5.63;;;6.50;99.90;;;;;;4966254;28;20477;-73
2022/11/20 08:33:56;;;;;;;7.47;5.30;;;6.60;99.90;;;;;;4964501;28;20595;-74
2022/11/20 08:36:24;;;;;;;6.40;4.50;;;6.60;99.90;;;;;;4966451;28;20469;-75
2022/11/20 08:38:52;;;;;;;6.33;4.50;;;6.50;99.90;;;;;;4966761;28;20457;-73
2022/11/20 08:41:26;;;;;;;6.70;4.93;;;6.60;99.90;;;;;;4966461;28;20476;-73
2022/11/20 08:43:56;;;;;;;5.30;4.50;;;6.70;99.90;;;;;;4965598;28;20460;-76
2022/11/20 08:46:24;;;;;;;6.80;5.50;;;6.60;99.90;;;;;;4966892;28;20567;-74
2022/11/20 08:48:51;;;;;;;7.23;5.70;;;6.60;99.90;;;;;;4966889;28;20456;-74
2022/11/20 08:51:19;;;;;;;5.73;5.17;;;6.60;99.90;;;;;;4967044;28;20481;-73
2022/11/20 08:53:48;;;;;;;6.60;5.90;;;6.70;99.90;;;;;;4965744;28;20496;-73
2022/11/20 08:56:15;;;;;;;8.23;5.17;;;6.70;99.90;;;;;;4966697;28;20936;-74
2022/11/20 08:58:42;;;;;;;7.57;5.13;;;6.70;99.90;;;;;;4966592;28;20964;-74
2022/11/20 09:01:10;;;;;;;5.90;5.20;;;6.80;99.90;;;;;;4967007;28;20497;-74
2022/11/20 09:03:37;;;;;;;7.60;5.23;;;6.80;99.90;;;;;;4966713;28;20461;-74
2022/11/20 09:06:05;;;;;;;7.40;6.13;;;6.80;99.90;;;;;;4966571;28;20458;-74
2022/11/20 09:08:33;;;;;;;7.87;5.37;;;6.80;99.90;;;;;;4966824;28;20487;-73
2022/11/20 09:11:00;;;;;;;9.13;5.40;;;6.80;99.90;;;;;;4967132;28;20734;-73
2022/11/20 09:13:28;;;;;;;9.57;5.80;;;6.80;99.90;;;;;;4965906;28;20496;-74
2022/11/20 09:15:56;;;;;;;6.10;5.27;;;6.80;99.90;;;;;;4966980;28;20469;-73
2022/11/20 09:18:24;;;;;;;7.40;5.00;;;6.70;99.90;;;;;;4966583;28;20821;-74
2022/11/20 09:20:51;;;;;;;8.67;6.03;;;6.80;99.90;;;;;;4958565;28;20485;-74
2022/11/20 09:23:18;;;;;;;6.70;5.80;;;6.80;99.90;;;;;;4946583;28;20457;-73
2022/11/20 09:25:45;;;;;;;7.70;5.97;;;6.80;99.90;;;;;;4948802;28;20461;-73
2022/11/20 09:28:12;;;;;;;6.93;5.50;;;6.70;99.90;;;;;;4950931;28;20468;-73
2022/11/20 09:30:39;;;;;;;8.60;5.67;;;6.70;99.90;;;;;;4953160;28;20480;-73
2022/11/20 09:33:06;;;;;;;9.80;5.30;;;6.80;99.90;;;;;;4950423;28;20580;-74
2022/11/20 09:35:35;;;;;;;9.70;5.50;;;6.80;99.90;;;;;;4948721;29;20480;-73
2022/11/20 09:38:06;;;;;;;7.73;5.77;;;6.80;99.90;;;;;;4951588;28;20461;-74
2022/11/20 09:40:35;;;;;;;8.90;5.57;;;6.90;99.90;;;;;;4945958;29;20993;-73
2022/11/20 09:43:08;;;;;;;6.23;5.50;;;6.90;99.90;;;;;;4950377;28;20449;-74
2022/11/20 09:45:49;;;;;;;11.70;5.70;;;6.90;99.90;;;;;;4948373;29;20937;-73
2022/11/20 09:48:30;;;;;;;9.00;6.80;;;7.00;99.90;;;;;;4950504;28;21053;-73
2022/11/20 09:51:04;;;;;;;8.53;6.00;;;7.00;99.90;;;;;;4948937;29;20473;-75
2022/11/20 09:53:53;;;;;;;8.70;5.77;;;7.10;99.90;;;;;;4947739;29;20839;-76
2022/11/20 09:56:21;;;;;;;6.77;5.63;;;7.10;99.90;;;;;;4949394;29;20828;-74
2022/11/20 09:58:51;;;;;;;9.20;6.47;;;7.10;99.90;;;;;;4947807;29;20453;-74
2022/11/20 10:01:20;;;;;;;8.43;7.07;;;7.10;99.90;;;;;;4950035;28;20489;-74
2022/11/20 10:03:54;;;;;;;8.60;7.00;;;7.10;99.90;;;;;;4949470;28;20457;-73
2022/11/20 10:06:29;;;;;;;9.43;6.17;;;7.10;99.90;;;;;;4950134;28;21383;-74
2022/11/20 10:09:05;;;;;;;13.03;8.27;;;7.10;99.90;;;;;;4950166;28;20452;-73
2022/11/20 10:11:43;;;;;;;11.70;8.60;;;7.00;99.90;;;;;;4950159;28;20493;-73
2022/11/20 10:14:21;;;;;;;13.70;9.30;;;7.10;99.90;;;;;;4950031;28;21072;-76
2022/11/20 10:16:56;;;;;;;13.17;8.27;;;7.20;99.90;;;;;;4950344;28;20940;-73
2022/11/20 10:19:33;;;;;;;11.87;7.83;;;7.10;99.90;;;;;;4950098;28;20463;-74
2022/11/20 10:22:10;;;;;;;9.83;6.53;;;7.20;99.90;;;;;;4949415;28;20848;-73
2022/11/20 10:24:45;;;;;;;8.10;6.30;;;7.10;99.90;;;;;;4950321;28;20452;-73
2022/11/20 10:27:44;;;;;;;8.17;5.63;;;7.10;99.90;;;;;;4950238;28;20557;-73
2022/11/20 10:30:14;;;;;;;7.93;6.13;;;7.10;99.90;;;;;;4939928;28;20469;-73
2022/11/20 10:32:43;;;;;;;9.03;5.87;;;7.10;99.90;;;;;;4949120;28;20830;-73
2022/11/20 10:35:21;;;;;;;8.77;5.87;;;7.10;99.90;;;;;;4950269;28;20464;-73
2022/11/20 10:37:54;;;;;;;6.97;5.97;;;7.10;99.90;;;;;;4949241;28;20468;-73
2022/11/20 10:40:30;;;;;;;5.10;4.60;;;7.10;99.90;;;;;;4950061;28;20522;-76
2022/11/20 10:43:00;;;;;;;4.63;3.70;;;7.00;99.90;;;;;;4949839;28;20456;-73
2022/11/20 10:45:43;;;;;;;3.80;3.40;;;7.00;99.90;;;;;;4950411;28;20461;-73
2022/11/20 10:48:15;;;;;;;4.20;3.80;;;7.00;99.90;;;;;;4950575;28;20442;-76
2022/11/20 10:50:50;;;;;;;5.20;4.37;;;7.00;99.90;;;;;;4949808;28;20488;-74
2022/11/20 10:53:32;;;;;;;4.20;3.53;;;7.00;99.90;;;;;;4949034;28;20492;-73
2022/11/20 10:56:05;;;;;;;4.33;3.20;;;7.00;99.90;;;;;;4949756;28;20457;-73
2022/11/20 10:58:40;;;;;;;3.63;3.33;;;7.00;99.90;;;;;;4949547;28;20484;-73
2022/11/20 11:01:14;;;;;;;4.10;3.67;;;7.00;99.90;;;;;;4949632;28;20485;-73
2022/11/20 11:03:43;;;;;;;4.47;3.97;;;7.10;99.90;;;;;;4949484;28;20461;-75
2022/11/20 11:06:21;;;;;;;3.60;3.10;;;7.10;99.90;;;;;;4949457;28;20466;-73
2022/11/20 11:08:51;;;;;;;6.47;3.77;;;7.20;99.90;;;;;;4949348;28;20911;-74
2022/11/20 11:11:24;;;;;;;4.50;4.10;;;7.10;99.90;;;;;;4949235;28;20481;-73
2022/11/20 11:13:51;;;;;;;4.33;3.93;;;7.20;99.90;;;;;;4949189;28;20485;-75
2022/11/20 11:16:22;;;;;;;7.23;4.20;;;7.20;99.90;;;;;;4948780;28;20458;-73
2022/11/20 11:18:49;;;;;;;3.30;3.00;;;7.20;99.90;;;;;;4949313;28;20438;-73
2022/11/20 11:21:23;;;;;;;3.53;3.00;;;7.20;99.90;;;;;;4948769;28;20477;-73
2022/11/20 11:23:59;;;;;;;3.57;3.27;;;7.20;99.90;;;;;;4947974;28;20453;-73
2022/11/20 11:26:27;;;;;;;3.13;2.93;;;7.20;99.90;;;;;;4949160;28;20445;-74
2022/11/20 11:28:56;;;;;;;3.60;3.00;;;7.20;99.90;;;;;;4950461;28;20453;-73
2022/11/20 11:31:24;;;;;;;4.17;3.40;;;7.20;99.90;;;;;;4950057;28;21059;-74
2022/11/20 11:33:51;;;;;;;7.10;3.47;;;7.20;99.90;;;;;;4948376;28;20855;-73
2022/11/20 11:36:21;;;;;;;8.67;5.40;;;7.20;99.90;;;;;;4948546;28;20461;-73
2022/11/20 11:38:53;;;;;;;6.60;4.53;;;7.20;99.90;;;;;;4949025;28;20962;-74
2022/11/20 11:41:26;;;;;;;6.83;4.30;;;7.20;99.90;;;;;;4948920;28;20480;-72
2022/11/20 11:46:44;;;;;;;4.83;4.10;;;7.30;99.90;;;;;;4948518;29;20440;-73
2022/11/20 11:49:18;;;;;;;7.30;4.43;;;7.20;99.90;;;;;;4947736;28;20847;-74
2022/11/20 11:52:02;;;;;;;6.10;4.60;;;7.20;99.90;;;;;;4947787;28;20473;-73
2022/11/20 11:54:34;;;;;;;12.27;5.20;;;7.30;99.90;;;;;;4948868;28;20493;-73
2022/11/20 11:57:10;;;;;;;7.97;4.90;;;7.30;99.90;;;;;;4948087;28;20465;-73
2022/11/20 11:59:46;;;;;;;10.60;6.40;;;7.30;99.90;;;;;;4948319;28;20488;-73
2022/11/20 12:02:28;;;;;;;7.70;6.10;;;7.40;99.90;;;;;;4947339;28;20492;-73
2022/11/20 12:04:59;;;;;;;8.90;5.73;;;7.50;99.90;;;;;;4948322;28;20437;-73
2022/11/20 12:07:39;;;;;;;11.73;6.13;;;7.50;99.90;;;;;;4947885;28;20453;-73
2022/11/20 12:10:13;;;;;;;7.17;4.93;;;7.60;99.90;;;;;;4948190;28;20461;-74
2022/11/20 12:12:45;;;;;;;9.37;5.90;;;7.60;99.90;;;;;;4947146;28;20456;-73
2022/11/20 12:15:16;;;;;;;7.40;5.37;;;7.70;99.90;;;;;;4947662;28;20856;-73
2022/11/20 12:17:43;;;;;;;6.20;4.13;;;7.80;99.90;;;;;;4947919;28;20457;-72
2022/11/20 12:20:14;;;;;;;10.67;5.13;;;7.80;99.90;;;;;;4947604;28;20457;-73
2022/11/20 12:22:51;;;;;;;7.67;4.20;;;7.80;99.90;;;;;;4947290;28;20457;-73
2022/11/20 12:25:23;;;;;;;7.50;3.77;;;7.80;99.90;;;;;;4947752;28;20823;-74
2022/11/20 12:28:13;;;;;;;4.93;2.77;;;7.80;99.90;;;;;;4948168;28;20473;-73
2022/11/20 12:30:46;;;;;;;6.77;3.30;;;7.90;99.90;;;;;;4948026;28;20481;-76
2022/11/20 12:33:24;;;;;;;6.03;2.23;;;8.00;99.90;;;;;;4947175;28;20464;-75
2022/11/20 12:36:08;;;;;;;3.77;1.90;;;8.00;99.90;;;;;;4947826;28;20467;-73
2022/11/20 12:38:53;;;;;;;3.47;2.23;;;8.00;99.90;;;;;;4947950;28;20441;-73
2022/11/20 12:47:29;;;;;;;4.07;2.67;;;8.00;99.90;;;;;;4948218;29;21012;-74
2022/11/20 12:50:07;;;;;;;4.30;2.30;;;8.00;99.90;;;;;;4948004;28;20445;-74
2022/11/20 12:52:41;;;;;;;5.03;2.53;;;8.10;99.90;;;;;;4946756;28;20488;-74
2022/11/20 12:55:22;;;;;;;4.20;2.70;;;8.20;99.90;;;;;;4947639;28;20496;-75
2022/11/20 12:57:54;;;;;;;3.30;2.10;;;8.30;99.90;;;;;;4947338;28;21312;-73
2022/11/20 13:00:24;;;;;;;6.97;2.13;;;8.40;99.90;;;;;;4949600;28;20472;-73
2022/11/20 13:03:07;;;;;;;3.63;2.00;;;8.40;99.90;;;;;;4948471;28;20461;-73
2022/11/20 13:05:44;;;;;;;5.57;2.20;;;8.50;99.90;;;;;;4950868;28;20461;-73
2022/11/20 13:08:21;;;;;;;7.13;2.10;;;8.60;99.90;;;;;;4950937;28;20476;-73
2022/11/20 13:10:53;;;;;;;3.47;2.30;;;8.60;99.90;;;;;;4950196;28;20481;-74
2022/11/20 13:13:26;;;;;;;2.70;2.50;;;8.60;99.90;;;;;;4949688;28;20885;-74
2022/11/20 13:16:00;;;;;;;4.23;2.27;;;8.60;99.90;;;;;;4949928;28;20457;-73
2022/11/20 13:18:28;;;;;;;4.70;1.90;;;8.70;99.90;;;;;;4949842;28;20961;-72
2022/11/20 13:20:54;;;;;;;1.80;1.70;;;8.70;99.90;;;;;;4950097;28;20485;-73
2022/11/20 13:23:26;;;;;;;2.37;1.97;;;8.60;99.90;;;;;;4949674;28;20453;-74
2022/11/20 13:26:05;;;;;;;2.33;1.93;;;8.70;99.90;;;;;;4950248;28;20592;-72
2022/11/20 13:28:32;;;;;;;4.90;1.80;;;8.70;99.90;;;;;;4949841;28;21242;-72
2022/11/20 13:31:00;;;;;;;2.83;1.60;;;8.80;99.90;;;;;;4949795;28;20986;-72
2022/11/20 13:33:31;;;;;;;1.77;1.60;;;8.80;99.90;;;;;;4949143;28;20462;-72
2022/11/20 13:36:00;;;;;;;4.37;1.90;;;8.80;99.90;;;;;;4949700;28;20477;-73
2022/11/20 13:38:27;;;;;;;5.13;1.93;;;8.90;99.90;;;;;;4949511;28;21262;-74
2022/11/20 13:40:56;;;;;;;2.13;1.93;;;8.90;99.90;;;;;;4949640;28;20483;-72
2022/11/20 13:43:29;;;;;;;3.00;1.50;;;8.80;99.90;;;;;;4948652;28;20459;-73
2022/11/20 13:45:58;;;;;;;2.17;1.50;;;8.90;99.90;;;;;;4949920;28;20453;-73
2022/11/20 13:48:31;;;;;;;6.73;2.13;;;8.90;99.90;;;;;;4949804;28;20453;-72
2022/11/20 13:51:21;;;;;;;3.23;2.00;;;8.90;99.90;;;;;;4949639;28;20992;-74
2022/11/20 13:54:12;;;;;;;1.90;1.80;;;8.90;99.90;;;;;;4947921;28;20984;-72
2022/11/20 13:56:51;;;;;;;3.00;1.93;;;8.80;99.90;;;;;;4949411;28;20469;-72
2022/11/20 13:59:44;;;;;;;1.87;1.40;;;8.80;99.90;;;;;;4949530;28;20457;-72
2022/11/20 14:02:13;;;;;;;3.90;1.97;;;8.80;99.90;;;;;;4948159;28;20500;-72
2022/11/20 14:04:45;;;;;;;5.20;1.60;;;8.80;99.90;;;;;;4949238;28;20453;-73
2022/11/20 14:07:13;;;;;;;2.23;1.20;;;8.90;99.90;;;;;;4949076;28;20492;-72
2022/11/20 14:09:49;;;;;;;3.60;1.50;;;9.00;99.90;;;;;;4948701;28;20458;-73
2022/11/20 14:12:19;;;;;;;3.00;1.90;;;9.00;99.90;;;;;;4947681;28;21047;-72
2022/11/20 14:14:50;;;;;;;2.60;1.60;;;9.00;99.90;;;;;;4949131;28;20497;-72
2022/11/20 14:17:20;;;;;;;3.07;1.87;;;8.90;99.90;;;;;;4948942;28;20457;-73
2022/11/20 14:19:50;;;;;;;6.13;1.60;;;8.90;99.90;;;;;;4948292;28;20937;-73
2022/11/20 14:22:22;;;;;;;2.30;1.93;;;8.80;99.90;;;;;;4948019;28;20485;-73
2022/11/20 14:24:50;;;;;;;4.43;1.70;;;8.80;99.90;;;;;;4949044;28;20449;-72
2022/11/20 14:27:20;;;;;;;4.93;2.73;;;8.80;99.90;;;;;;4948408;28;20462;-73
2022/11/20 14:29:48;;;;;;;4.73;2.40;;;8.70;99.90;;;;;;4949637;28;20568;-73
2022/11/20 14:32:17;;;;;;;5.00;2.23;;;8.70;99.90;;;;;;4948812;28;20484;-75
2022/11/20 14:34:46;;;;;;;4.83;3.50;;;8.70;99.90;;;;;;4949147;28;20489;-72
2022/11/20 14:37:20;;;;;;;3.53;1.90;;;8.70;99.90;;;;;;4948803;28;20950;-73
2022/11/20 14:39:51;;;;;;;2.33;2.13;;;8.60;99.90;;;;;;4950546;28;21242;-73
2022/11/20 14:42:19;;;;;;;9.77;6.57;;;8.60;99.90;;;;;;4948922;28;20486;-73
2022/11/20 14:44:48;;;;;;;12.40;6.87;;;8.60;99.90;;;;;;4949597;28;20483;-73
2022/11/20 14:47:21;;;;;;;7.10;3.43;;;8.60;99.90;;;;;;4949639;28;20472;-73
2022/11/20 14:49:48;;;;;;;4.70;2.60;;;8.60;99.90;;;;;;4950052;28;20438;-73
2022/11/20 14:52:19;;;;;;;2.60;1.87;;;8.60;99.90;;;;;;4948954;28;20477;-73
2022/11/20 14:54:47;;;;;;;3.27;1.57;;;8.50;99.90;;;;;;4949351;28;21290;-73
2022/11/20 14:57:29;;;;;;;3.60;1.67;;;8.50;99.90;;;;;;4949882;28;20464;-73
2022/11/20 15:00:20;;;;;;;1.67;1.57;;;8.40;99.90;;;;;;4949713;28;20457;-73
2022/11/20 15:02:48;;;;;;;5.07;1.80;;;8.40;99.90;;;;;;4949567;28;20461;-74
2022/11/20 15:05:16;;;;;;;2.67;2.17;;;8.30;99.90;;;;;;4949517;28;20462;-73
2022/11/20 15:07:47;;;;;;;3.70;2.53;;;8.30;99.90;;;;;;4949517;28;20493;-74
2022/11/20 15:10:20;;;;;;;5.20;3.40;;;8.30;99.90;;;;;;4949144;28;21015;-74
2022/11/20 15:12:49;;;;;;;3.07;2.50;;;8.30;99.90;;;;;;4947984;28;21370;-74
2022/11/20 15:15:20;;;;;;;4.43;2.90;;;8.20;99.90;;;;;;4948630;28;21515;-74
2022/11/20 15:17:47;;;;;;;3.17;1.93;;;8.10;99.90;;;;;;4949062;28;20457;-74
2022/11/20 15:20:16;;;;;;;2.13;1.70;;;8.10;99.90;;;;;;4949030;28;21310;-74
2022/11/20 15:22:44;;;;;;;2.03;1.87;;;8.00;99.90;;;;;;4948528;28;20463;-69
2022/11/20 15:25:15;;;;;;;3.23;1.90;;;8.00;99.90;;;;;;4950081;28;20468;-69
2022/11/20 15:27:43;;;;;;;2.47;2.27;;;8.00;99.90;;;;;;4949528;28;20801;-69
2022/11/20 15:30:18;;;;;;;3.43;2.40;;;8.00;99.90;;;;;;4948900;28;20465;-69
2022/11/20 15:32:46;;;;;;;2.97;2.23;;;8.00;99.90;;;;;;4948033;28;20475;-74
2022/11/20 15:35:14;;;;;;;9.20;3.40;;;7.90;99.90;;;;;;4948541;28;20537;-74
2022/11/20 15:37:42;;;;;;;5.20;3.07;;;7.90;99.90;;;;;;4949793;28;20468;-75
2022/11/20 15:40:11;;;;;;;3.50;2.40;;;7.80;99.90;;;;;;4948845;28;20453;-76
2022/11/20 15:42:38;;;;;;;3.47;2.47;;;7.90;99.90;;;;;;4948515;28;20962;-75
2022/11/20 15:45:05;;;;;;;4.33;2.60;;;7.90;99.90;;;;;;4949462;28;20477;-77
2022/11/20 15:47:35;;;;;;;4.80;2.90;;;7.90;99.90;;;;;;4949362;28;20843;-75
2022/11/20 15:50:03;;;;;;;5.10;4.13;;;7.80;99.90;;;;;;4948768;28;20934;-76
2022/11/20 15:52:30;;;;;;;13.40;4.33;;;7.80;99.90;;;;;;4948080;28;20904;-75
2022/11/20 15:54:56;;;;;;;3.67;3.20;;;7.80;99.90;;;;;;4949028;28;20500;-75
2022/11/20 15:57:25;;;;;;;5.23;3.10;;;7.80;99.90;;;;;;4948596;28;20476;-76
2022/11/20 15:59:51;;;;;;;5.07;3.33;;;7.80;99.90;;;;;;4948177;28;20462;-75
2022/11/20 16:02:18;;;;;;;8.20;3.30;;;7.80;99.90;;;;;;4946583;28;20493;-76
2022/11/20 16:04:45;;;;;;;6.83;3.70;;;7.80;99.90;;;;;;4947803;28;20463;-74
2022/11/20 16:07:13;;;;;;;5.93;3.93;;;7.70;99.90;;;;;;4947509;28;20466;-75
2022/11/20 16:09:40;;;;;;;7.23;4.10;;;7.70;99.90;;;;;;4948458;28;20465;-76
2022/11/20 16:15:44;;;;;;;6.30;3.17;;;7.70;99.90;;;;;;4948187;28;20482;-73
2022/11/20 16:17:43;;;;;;;7.73;3.40;;;7.70;99.90;;;;;;4967736;28;20499;-72
2022/11/20 16:20:15;;;;;;;6.00;3.10;;;7.60;99.90;;;;;;4968062;28;20460;-73
2022/11/20 16:22:41;;;;;;;3.90;2.93;;;7.60;99.90;;;;;;4967442;28;20459;-73
2022/11/20 16:25:08;;;;;;;3.67;3.20;;;7.60;99.90;;;;;;4968336;28;20460;-73
2022/11/20 16:27:35;;;;;;;4.77;2.83;;;7.60;99.90;;;;;;4965564;28;20839;-73
2022/11/20 16:30:03;;;;;;;5.20;3.10;;;7.60;99.90;;;;;;4967571;28;20465;-73
2022/11/20 16:32:31;;;;;;;3.83;3.13;;;7.60;99.90;;;;;;4966541;28;20483;-73
2022/11/20 16:34:58;;;;;;;7.30;3.90;;;7.60;99.90;;;;;;4967635;28;20488;-73
2022/11/20 16:37:25;;;;;;;5.20;3.73;;;7.50;99.90;;;;;;4968333;28;20465;-73
2022/11/20 16:39:51;;;;;;;5.30;3.90;;;7.40;99.90;;;;;;4969028;28;20460;-72
2022/11/20 16:42:18;;;;;;;8.30;3.60;;;7.30;99.90;;;;;;4968536;28;20584;-72
2022/11/20 16:44:47;;;;;;;4.67;3.43;;;7.20;99.90;;;;;;4968439;28;20465;-73
2022/11/20 16:47:15;;;;;;;5.33;3.90;;;7.20;99.90;;;;;;4968577;28;20468;-71
2022/11/20 16:49:42;;;;;;;6.20;4.53;;;7.20;99.90;;;;;;4968463;28;20571;-71
2022/11/20 16:52:09;;;;;;;11.57;6.53;;;7.10;99.90;;;;;;4963038;28;20917;-72
2022/11/20 16:54:36;;;;;;;11.50;6.70;;;7.10;99.90;;;;;;4947685;28;20467;-71
2022/11/20 16:57:03;;;;;;;11.83;6.57;;;7.10;99.90;;;;;;4949549;28;20467;-72
2022/11/20 16:59:30;;;;;;;7.80;5.43;;;7.00;99.90;;;;;;4949824;28;20465;-72
2022/11/20 17:01:56;;;;;;;8.03;5.33;;;7.00;99.90;;;;;;4948345;28;20492;-72
2022/11/20 17:04:25;;;;;;;7.73;3.80;;;7.00;99.90;;;;;;4948467;28;20461;-73
2022/11/20 17:06:51;;;;;;;4.13;3.70;;;6.90;99.90;;;;;;4947640;28;20458;-73
2022/11/20 17:09:18;;;;;;;5.77;3.50;;;6.90;99.90;;;;;;4949020;28;20462;-73
2022/11/20 17:11:45;;;;;;;4.30;3.40;;;6.80;99.90;;;;;;4948128;28;20486;-72
2022/11/20 17:14:12;;;;;;;4.80;3.47;;;6.80;99.90;;;;;;4948295;28;20465;-74
2022/11/20 17:16:39;;;;;;;5.00;3.67;;;6.80;99.90;;;;;;4948680;28;20943;-72
2022/11/20 17:19:07;;;;;;;6.00;3.80;;;6.80;99.90;;;;;;4948879;28;20462;-74
2022/11/20 17:21:36;;;;;;;4.00;3.57;;;6.80;99.90;;;;;;4949154;28;20916;-74
2022/11/20 17:24:04;;;;;;;4.50;3.13;;;6.80;99.90;;;;;;4948666;28;20454;-72
2022/11/20 17:26:32;;;;;;;4.87;3.20;;;6.80;99.90;;;;;;4948696;28;20461;-72
2022/11/20 17:29:00;;;;;;;4.33;3.00;;;6.90;99.90;;;;;;4947680;28;20464;-74
2022/11/20 17:31:28;;;;;;;3.90;3.23;;;6.90;99.90;;;;;;4948292;28;20486;-74
2022/11/20 17:33:55;;;;;;;3.50;3.20;;;6.90;99.90;;;;;;4948547;28;20463;-73
2022/11/20 17:36:22;;;;;;;3.93;3.47;;;7.00;99.90;;;;;;4949182;28;20489;-73
2022/11/20 17:38:50;;;;;;;3.73;3.37;;;7.00;99.90;;;;;;4948274;28;20462;-74
2022/11/20 17:41:19;;;;;;;7.73;3.50;;;7.00;99.90;;;;;;4948778;28;20582;-73
2022/11/20 17:43:46;;;;;;;4.37;3.60;;;7.00;99.90;;;;;;4948154;28;20842;-74
2022/11/20 17:46:14;;;;;;;4.83;3.17;;;7.00;99.90;;;;;;4949312;28;20456;-73
2022/11/20 17:48:43;;;;;;;6.17;3.00;;;7.00;99.90;;;;;;4951645;28;20964;-76
2022/11/20 17:51:11;;;;;;;5.20;2.80;;;7.00;99.90;;;;;;4951488;28;20930;-74
2022/11/20 17:53:39;;;;;;;4.10;3.23;;;6.90;99.90;;;;;;4951562;28;20858;-76
2022/11/20 17:58:52;;;;;;;3.70;2.70;;;7.00;99.90;;;;;;4951487;29;20445;-77
2022/11/20 18:01:19;;;;;;;2.90;2.70;;;7.00;99.90;;;;;;4958938;28;21318;-72
2022/11/20 18:03:46;;;;;;;5.00;2.97;;;7.00;99.90;;;;;;4969130;28;20467;-74
2022/11/20 18:06:15;;;;;;;6.13;3.13;;;7.00;99.90;;;;;;4969594;28;20492;-72
2022/11/20 18:08:42;;;;;;;3.73;2.97;;;7.00;99.90;;;;;;4969456;28;21175;-74
2022/11/20 18:11:11;;;;;;;4.03;2.97;;;7.00;99.90;;;;;;4969660;28;20485;-72
2022/11/20 18:16:23;;;;;;;6.13;3.67;;;7.00;99.90;;;;;;4969624;28;20482;-74
2022/11/20 18:18:50;;;;;;;3.67;2.77;;;7.10;99.90;;;;;;4970108;28;20464;-75
2022/11/20 18:21:17;;;;;;;4.43;2.97;;;7.10;99.90;;;;;;4969571;28;20980;-75
2022/11/20 18:23:44;;;;;;;4.57;2.80;;;7.10;99.90;;;;;;4969783;28;20460;-73
2022/11/20 18:26:12;;;;;;;2.83;2.43;;;7.10;99.90;;;;;;4971073;28;20464;-76
2022/11/20 18:28:39;;;;;;;6.07;2.70;;;7.10;99.90;;;;;;4969905;28;20987;-74
2022/11/20 18:31:07;;;;;;;2.53;2.33;;;7.10;99.90;;;;;;4970306;28;20477;-72